Time;durP1;ratioP1;P1;durP2;ratioP2;P2;SDS_P1;SDS_P2;PMS_P1;PMS_P2;Temp;Humidity;BMP_temperature;BMP_pressure;BME280_temperature;BME280_humidity;BME280_pressure;Samples;Min_cycle;Max_cycle;Signal;HPM_P1;HPM_P2
2022/12/30 00:00:49;;;;;;;20.70;4.30;;;6.50;99.90;;;;;;5061520;28;20037;-75
2022/12/30 00:03:15;;;;;;;18.25;3.75;;;6.50;99.90;;;;;;5061859;28;20373;-75
2022/12/30 00:05:41;;;;;;;20.73;4.30;;;6.40;99.90;;;;;;5062721;28;20089;-75
2022/12/30 00:08:45;;;;;;;18.70;3.90;;;6.50;99.90;;;;;;5047870;28;20098;-75
2022/12/30 00:10:52;;;;;;;18.10;3.85;;;6.50;99.90;;;;;;5060882;28;20135;-75
2022/12/30 00:35:17;;;;;;;17.02;4.45;;;6.30;99.90;;;;;;5060798;28;20044;-75
2022/12/30 00:37:43;;;;;;;20.10;3.80;;;6.20;99.90;;;;;;5064559;28;20365;-75
2022/12/30 00:40:09;;;;;;;23.38;4.35;;;6.10;99.90;;;;;;5062262;28;20057;-75
2022/12/30 00:45:20;;;;;;;19.02;3.55;;;6.00;99.90;;;;;;5060491;28;20743;-75
2022/12/30 00:47:46;;;;;;;21.52;3.95;;;6.00;99.90;;;;;;5043795;28;20048;-75
2022/12/30 00:58:24;;;;;;;19.73;3.70;;;5.90;99.90;;;;;;5078508;28;20390;-75
2022/12/30 01:00:50;;;;;;;18.48;4.32;;;5.90;99.90;;;;;;5061843;28;20097;-75
2022/12/30 01:03:15;;;;;;;21.02;4.57;;;5.80;99.90;;;;;;5059219;28;20575;-75
2022/12/30 01:05:41;;;;;;;23.48;4.45;;;5.80;99.90;;;;;;5046237;28;20109;-75
2022/12/30 01:08:07;;;;;;;20.85;5.10;;;5.80;99.90;;;;;;5045231;28;20040;-75
2022/12/30 01:10:33;;;;;;;19.27;4.07;;;5.80;99.90;;;;;;5063543;28;20045;-75
2022/12/30 01:12:58;;;;;;;22.60;4.55;;;5.80;99.90;;;;;;5061448;28;20048;-75
2022/12/30 01:15:24;;;;;;;21.60;4.45;;;5.70;99.90;;;;;;5062401;28;20043;-75
2022/12/30 01:17:50;;;;;;;16.38;4.43;;;5.70;99.90;;;;;;5062393;28;20123;-75
2022/12/30 01:20:16;;;;;;;25.70;4.22;;;5.70;99.90;;;;;;5061176;28;20626;-75
2022/12/30 01:22:41;;;;;;;18.83;3.90;;;5.60;99.90;;;;;;5046482;28;20045;-75
2022/12/30 01:25:07;;;;;;;24.08;4.28;;;5.60;99.90;;;;;;5043689;28;20500;-75
2022/12/30 01:27:33;;;;;;;15.73;4.03;;;5.50;99.90;;;;;;5046052;28;20045;-75
2022/12/30 01:29:59;;;;;;;21.85;4.40;;;5.50;99.90;;;;;;5046440;28;20542;-75
2022/12/30 01:32:28;;;;;;;22.48;4.55;;;5.50;99.90;;;;;;5043292;28;20075;-75
2022/12/30 01:34:55;;;;;;;24.33;4.93;;;5.50;99.90;;;;;;5062503;28;20036;-75
2022/12/30 01:37:22;;;;;;;24.27;4.47;;;5.50;99.90;;;;;;5045451;28;20047;-75
2022/12/30 01:39:48;;;;;;;19.25;3.78;;;5.50;99.90;;;;;;5064919;28;20086;-76
2022/12/30 01:42:20;;;;;;;19.58;4.15;;;5.50;99.90;;;;;;5047031;28;20163;-75
2022/12/30 01:44:49;;;;;;;21.45;4.60;;;5.50;99.90;;;;;;5066496;28;20427;-75
2022/12/30 01:47:25;;;;;;;23.52;4.15;;;5.50;99.90;;;;;;5065133;28;20044;-75
2022/12/30 01:49:55;;;;;;;23.13;4.75;;;5.50;99.90;;;;;;5049124;28;20090;-75
2022/12/30 01:52:23;;;;;;;24.10;4.40;;;5.50;99.90;;;;;;5065870;28;20032;-75
2022/12/30 01:54:51;;;;;;;26.75;4.15;;;5.50;99.90;;;;;;5063182;28;20213;-75
2022/12/30 01:57:19;;;;;;;25.10;4.22;;;5.60;99.90;;;;;;5047782;28;20115;-75
2022/12/30 01:59:45;;;;;;;20.88;4.57;;;5.60;99.90;;;;;;5064804;28;20367;-75
2022/12/30 02:02:11;;;;;;;21.70;4.10;;;5.70;99.90;;;;;;5065274;28;20507;-75
2022/12/30 02:04:37;;;;;;;25.60;4.15;;;5.70;99.90;;;;;;5048638;28;20355;-75
2022/12/30 02:07:20;;;;;;;18.98;4.20;;;5.70;99.90;;;;;;5064920;28;20097;-75
2022/12/30 02:09:47;;;;;;;22.73;4.65;;;5.80;99.90;;;;;;5047903;28;20508;-75
2022/12/30 02:12:12;;;;;;;23.88;5.05;;;5.80;99.90;;;;;;5064696;28;20037;-75
2022/12/30 02:14:41;;;;;;;22.45;4.18;;;5.90;99.90;;;;;;5063419;28;20064;-75
2022/12/30 02:17:44;;;;;;;24.75;5.80;;;5.90;99.90;;;;;;5062767;28;20041;-75
2022/12/30 02:20:35;;;;;;;15.20;4.30;;;5.90;99.90;;;;;;5006309;28;20412;-75
2022/12/30 02:23:00;;;;;;;21.83;4.65;;;5.90;99.90;;;;;;5048680;28;20040;-75
2022/12/30 02:25:48;;;;;;;23.27;4.65;;;5.90;99.90;;;;;;5049887;28;20094;-75
2022/12/30 02:28:31;;;;;;;20.23;4.47;;;5.90;99.90;;;;;;5079100;28;20637;-75
2022/12/30 02:31:35;;;;;;;21.35;4.72;;;5.80;99.90;;;;;;5060352;28;20052;-75
2022/12/30 02:34:24;;;;;;;21.65;4.75;;;5.80;99.90;;;;;;5059294;28;20059;-75
2022/12/30 02:37:09;;;;;;;21.88;4.22;;;5.80;99.90;;;;;;5048415;28;20040;-75
2022/12/30 02:39:44;;;;;;;22.52;4.40;;;5.70;99.90;;;;;;5064587;28;20096;-75
2022/12/30 02:45:13;;;;;;;22.08;4.20;;;5.70;99.90;;;;;;5063935;28;20060;-76
2022/12/30 02:47:44;;;;;;;20.40;4.13;;;5.70;99.90;;;;;;5048881;28;20036;-75
2022/12/30 02:53:06;;;;;;;19.00;3.60;;;5.60;99.90;;;;;;5064611;28;20044;-75
2022/12/30 02:55:31;;;;;;;20.30;3.70;;;5.60;99.90;;;;;;5048772;28;20040;-75
2022/12/30 02:57:57;;;;;;;16.05;4.32;;;5.60;99.90;;;;;;5064367;28;20379;-75
2022/12/30 03:06:43;;;;;;;16.45;4.18;;;5.50;99.90;;;;;;5064779;28;20037;-75
2022/12/30 03:09:36;;;;;;;17.35;4.18;;;5.50;99.90;;;;;;5046999;28;20066;-75
2022/12/30 03:12:22;;;;;;;17.13;3.80;;;5.50;99.90;;;;;;5064895;28;20032;-75
2022/12/30 03:15:00;;;;;;;20.83;4.18;;;5.50;99.90;;;;;;5064176;28;20032;-75
2022/12/30 03:17:31;;;;;;;25.80;4.20;;;5.50;99.90;;;;;;5064275;28;20036;-75
2022/12/30 03:20:01;;;;;;;20.65;4.50;;;5.50;99.90;;;;;;5062165;28;20036;-75
2022/12/30 03:28:04;;;;;;;25.13;5.25;;;5.40;99.90;;;;;;5064040;28;20041;-75
2022/12/30 03:30:32;;;;;;;20.60;4.00;;;5.40;99.90;;;;;;5064375;28;20068;-75
2022/12/30 03:32:58;;;;;;;26.75;5.47;;;5.40;99.90;;;;;;5064140;28;20039;-75
2022/12/30 03:35:27;;;;;;;20.85;4.78;;;5.30;99.90;;;;;;5046367;28;20048;-75
2022/12/30 03:37:56;;;;;;;19.75;4.03;;;5.30;99.90;;;;;;5061922;28;20044;-75
2022/12/30 03:40:40;;;;;;;23.77;4.82;;;5.30;99.90;;;;;;5047840;28;20110;-75
2022/12/30 03:43:07;;;;;;;19.08;4.40;;;5.20;99.90;;;;;;5046750;28;20043;-75
2022/12/30 03:45:33;;;;;;;21.17;4.70;;;5.20;99.90;;;;;;5063314;28;20044;-75
2022/12/30 03:47:59;;;;;;;25.25;5.05;;;5.10;99.90;;;;;;5063819;28;20082;-75
2022/12/30 03:50:25;;;;;;;20.63;4.85;;;5.10;99.90;;;;;;5047807;28;20044;-75
2022/12/30 03:52:50;;;;;;;20.38;4.47;;;5.10;99.90;;;;;;5047048;28;20033;-75
2022/12/30 03:55:16;;;;;;;18.20;5.28;;;5.00;99.90;;;;;;5062573;28;20040;-75
2022/12/30 03:57:42;;;;;;;24.85;5.40;;;5.00;99.90;;;;;;5047996;28;20385;-75
2022/12/30 04:00:08;;;;;;;19.65;4.90;;;5.00;99.90;;;;;;5060405;28;20036;-75
2022/12/30 04:02:35;;;;;;;19.95;5.60;;;4.90;99.90;;;;;;5064027;28;20047;-75
2022/12/30 04:05:00;;;;;;;22.33;4.85;;;4.90;99.90;;;;;;5062977;28;20040;-75
2022/12/30 04:07:26;;;;;;;18.33;4.93;;;4.90;99.90;;;;;;5046845;28;20164;-75
2022/12/30 04:09:52;;;;;;;22.55;5.60;;;4.90;99.90;;;;;;5047028;28;20488;-75
2022/12/30 04:12:17;;;;;;;21.55;5.90;;;4.90;99.90;;;;;;5061019;28;20044;-75
2022/12/30 04:14:43;;;;;;;27.10;5.80;;;5.00;99.90;;;;;;5063901;28;20519;-75
2022/12/30 04:17:09;;;;;;;28.58;4.95;;;5.00;99.90;;;;;;5047129;28;20071;-75
2022/12/30 04:19:34;;;;;;;24.58;6.28;;;5.00;99.90;;;;;;5061653;28;20106;-75
2022/12/30 04:22:00;;;;;;;26.05;4.90;;;5.10;99.90;;;;;;5062299;28;20045;-75
2022/12/30 04:24:26;;;;;;;18.70;5.00;;;5.10;99.90;;;;;;5046032;28;20043;-75
2022/12/30 04:26:51;;;;;;;19.05;5.30;;;5.20;99.90;;;;;;5047418;28;20424;-75
2022/12/30 04:29:17;;;;;;;20.02;5.00;;;5.20;99.90;;;;;;5047541;28;20074;-75
2022/12/30 04:31:42;;;;;;;19.98;4.88;;;5.30;99.90;;;;;;5064258;28;20129;-75
2022/12/30 04:34:08;;;;;;;20.80;5.03;;;5.20;99.90;;;;;;5063079;28;20033;-75
2022/12/30 04:36:34;;;;;;;18.90;4.55;;;5.20;99.90;;;;;;5047958;28;20081;-74
2022/12/30 04:38:59;;;;;;;25.27;5.35;;;5.30;99.90;;;;;;5044924;28;20119;-74
2022/12/30 04:41:25;;;;;;;17.67;4.47;;;5.30;99.90;;;;;;5046808;28;20060;-76
2022/12/30 04:43:51;;;;;;;22.90;5.03;;;5.30;99.90;;;;;;5062554;28;20045;-74
2022/12/30 04:46:16;;;;;;;20.58;4.55;;;5.30;99.90;;;;;;5062688;28;20048;-74
2022/12/30 04:48:42;;;;;;;18.67;4.63;;;5.30;99.90;;;;;;5057891;28;20488;-74
2022/12/30 04:51:07;;;;;;;20.95;5.15;;;5.20;99.90;;;;;;5063142;28;20045;-74
2022/12/30 04:53:33;;;;;;;25.30;4.55;;;5.30;99.90;;;;;;5061011;28;20507;-74
2022/12/30 04:55:59;;;;;;;18.17;4.70;;;5.20;99.90;;;;;;5061138;28;20037;-74
2022/12/30 04:58:25;;;;;;;19.73;5.05;;;5.30;99.90;;;;;;5060983;28;20032;-74
2022/12/30 05:00:51;;;;;;;17.38;3.97;;;5.30;99.90;;;;;;5062584;28;20452;-74
2022/12/30 05:03:18;;;;;;;18.40;4.93;;;5.30;99.90;;;;;;5063169;28;20396;-74
2022/12/30 05:05:44;;;;;;;18.48;5.07;;;5.40;99.90;;;;;;5064375;28;20040;-74
2022/12/30 05:08:09;;;;;;;21.38;4.82;;;5.40;99.90;;;;;;5060682;28;20071;-75
2022/12/30 05:10:37;;;;;;;22.48;5.50;;;5.30;99.90;;;;;;5060846;28;20468;-74
2022/12/30 05:13:03;;;;;;;21.92;5.72;;;5.30;99.90;;;;;;5062773;28;20625;-75
2022/12/30 05:15:28;;;;;;;21.67;6.55;;;5.30;99.90;;;;;;5064169;28;20592;-74
2022/12/30 05:17:54;;;;;;;22.52;5.68;;;5.30;99.90;;;;;;5049915;28;20574;-75
2022/12/30 05:20:20;;;;;;;17.60;5.68;;;5.40;99.90;;;;;;5061109;28;20135;-74
2022/12/30 05:22:46;;;;;;;22.83;8.07;;;5.40;99.90;;;;;;5066530;28;20044;-74
2022/12/30 05:27:55;;;;;;;18.30;8.43;;;5.50;99.90;;;;;;5082976;28;20048;-75
2022/12/30 05:30:22;;;;;;;21.95;9.10;;;5.50;99.90;;;;;;5066573;28;20048;-74
2022/12/30 05:32:47;;;;;;;22.90;9.38;;;5.50;99.90;;;;;;5051079;28;20102;-74
2022/12/30 05:35:13;;;;;;;23.60;9.60;;;5.50;99.90;;;;;;5050059;28;20048;-75
2022/12/30 05:37:39;;;;;;;20.80;9.65;;;5.50;99.90;;;;;;5049392;28;20464;-74
2022/12/30 05:40:05;;;;;;;23.98;9.20;;;5.50;99.90;;;;;;5068289;28;20072;-74
2022/12/30 05:42:31;;;;;;;20.60;7.85;;;5.50;99.90;;;;;;5064672;28;20051;-74
2022/12/30 05:44:56;;;;;;;19.98;7.88;;;5.60;99.90;;;;;;5068044;28;20036;-74
2022/12/30 05:47:22;;;;;;;21.33;8.85;;;5.60;99.90;;;;;;5064605;28;20040;-74
2022/12/30 05:49:48;;;;;;;22.70;8.60;;;5.60;99.90;;;;;;5066211;28;20403;-74
2022/12/30 05:52:15;;;;;;;18.67;8.00;;;5.70;99.90;;;;;;5064880;28;20263;-75
2022/12/30 05:54:41;;;;;;;22.65;8.90;;;5.60;99.90;;;;;;5050586;28;20186;-74
2022/12/30 05:57:07;;;;;;;18.88;7.22;;;5.60;99.90;;;;;;5050803;28;20124;-76
2022/12/30 05:59:33;;;;;;;18.42;7.72;;;5.60;99.90;;;;;;5047008;28;20135;-76
2022/12/30 06:01:59;;;;;;;21.33;7.65;;;5.50;99.90;;;;;;5067151;28;20036;-75
2022/12/30 06:04:24;;;;;;;17.27;7.07;;;5.40;99.90;;;;;;5065874;28;20066;-74
2022/12/30 06:06:50;;;;;;;20.40;7.53;;;5.30;99.90;;;;;;5050396;28;20041;-75
2022/12/30 06:09:16;;;;;;;25.02;7.85;;;5.20;99.90;;;;;;5050248;28;20086;-74
2022/12/30 06:11:41;;;;;;;18.75;6.65;;;5.20;99.90;;;;;;5049062;28;20552;-74
2022/12/30 06:14:09;;;;;;;18.25;6.45;;;5.10;99.90;;;;;;5062020;28;20071;-74
2022/12/30 06:16:35;;;;;;;19.77;6.00;;;5.00;99.90;;;;;;5065536;28;20086;-76
2022/12/30 06:19:00;;;;;;;16.27;6.30;;;5.00;99.90;;;;;;5063663;28;20107;-74
2022/12/30 06:21:26;;;;;;;20.40;6.13;;;4.90;99.90;;;;;;5064401;28;20123;-74
2022/12/30 06:23:52;;;;;;;22.52;7.45;;;4.90;99.90;;;;;;5046304;28;20672;-75
2022/12/30 06:26:17;;;;;;;16.15;5.38;;;4.90;99.90;;;;;;5064878;28;20464;-75
2022/12/30 06:28:43;;;;;;;23.15;5.70;;;4.90;99.90;;;;;;5049130;28;20043;-75
2022/12/30 06:31:09;;;;;;;15.05;5.50;;;4.90;99.90;;;;;;5064703;28;20079;-75
2022/12/30 06:33:35;;;;;;;10.45;4.32;;;4.80;99.90;;;;;;5049707;28;20036;-74
2022/12/30 06:36:01;;;;;;;19.75;5.50;;;4.80;99.90;;;;;;5063223;28;20392;-74
2022/12/30 06:38:26;;;;;;;19.77;6.47;;;4.80;99.90;;;;;;5066495;28;20032;-74
2022/12/30 06:40:52;;;;;;;14.30;4.88;;;4.80;99.90;;;;;;5064788;28;20058;-74
2022/12/30 06:43:17;;;;;;;20.58;5.43;;;4.70;99.90;;;;;;5063516;28;20044;-75
2022/12/30 06:45:43;;;;;;;22.25;5.85;;;4.70;99.90;;;;;;5050080;28;20496;-74
2022/12/30 06:48:09;;;;;;;18.95;5.72;;;4.70;99.90;;;;;;5047595;28;20040;-74
2022/12/30 06:50:36;;;;;;;21.70;6.00;;;4.70;99.90;;;;;;5063259;28;20044;-74
2022/12/30 06:53:02;;;;;;;12.98;4.80;;;4.70;99.90;;;;;;5061330;28;20059;-74
2022/12/30 06:55:27;;;;;;;18.98;4.93;;;4.70;99.90;;;;;;5045818;28;20492;-75
2022/12/30 06:57:53;;;;;;;20.00;5.20;;;4.60;99.90;;;;;;5066334;28;20105;-74
2022/12/30 07:00:19;;;;;;;14.65;5.50;;;4.60;99.90;;;;;;5048620;28;20071;-75
2022/12/30 07:02:44;;;;;;;18.40;5.13;;;4.60;99.90;;;;;;5046542;28;20048;-74
2022/12/30 07:05:10;;;;;;;19.90;4.88;;;4.50;99.90;;;;;;5048468;28;20087;-75
2022/12/30 07:07:35;;;;;;;17.83;5.40;;;4.60;99.90;;;;;;5060172;28;20055;-74
2022/12/30 07:10:01;;;;;;;16.45;5.15;;;4.60;99.90;;;;;;5063661;28;20037;-74
2022/12/30 07:12:27;;;;;;;14.10;4.63;;;4.60;99.90;;;;;;5064729;28;20068;-75
2022/12/30 07:14:52;;;;;;;17.25;5.93;;;4.50;99.90;;;;;;5047001;28;20048;-75
2022/12/30 07:17:18;;;;;;;14.20;4.78;;;4.50;99.90;;;;;;5049138;28;20473;-75
2022/12/30 07:19:46;;;;;;;15.75;4.57;;;4.50;99.90;;;;;;5063843;28;20052;-74
2022/12/30 07:22:12;;;;;;;18.80;4.65;;;4.50;99.90;;;;;;5049278;28;20036;-75
2022/12/30 07:24:38;;;;;;;14.88;4.97;;;4.50;99.90;;;;;;5062642;28;20102;-74
2022/12/30 07:27:03;;;;;;;17.38;4.57;;;4.50;99.90;;;;;;5064079;28;20068;-74
2022/12/30 07:29:29;;;;;;;19.45;5.15;;;4.50;99.90;;;;;;5049130;28;20123;-74
2022/12/30 07:31:55;;;;;;;13.05;4.20;;;4.50;99.90;;;;;;5063581;28;20413;-74
2022/12/30 07:34:21;;;;;;;16.30;5.13;;;4.50;99.90;;;;;;5048174;28;20029;-74
2022/12/30 07:36:47;;;;;;;22.17;4.15;;;4.50;99.90;;;;;;5049445;28;20127;-74
2022/12/30 07:39:12;;;;;;;22.55;4.70;;;4.50;99.90;;;;;;5064148;28;20072;-74
2022/12/30 07:41:38;;;;;;;18.52;5.03;;;4.50;99.90;;;;;;5045338;28;20048;-74
2022/12/30 07:44:03;;;;;;;10.63;3.80;;;4.50;99.90;;;;;;5047506;28;20044;-75
2022/12/30 07:46:29;;;;;;;17.80;4.22;;;4.60;99.90;;;;;;5079432;28;20033;-75
2022/12/30 07:48:55;;;;;;;17.08;4.65;;;4.60;99.90;;;;;;5063777;28;20117;-74
2022/12/30 07:51:20;;;;;;;23.77;4.63;;;4.60;99.90;;;;;;5063593;28;20044;-74
2022/12/30 07:53:46;;;;;;;17.77;3.97;;;4.60;99.90;;;;;;5047392;28;20484;-74
2022/12/30 07:56:13;;;;;;;17.10;3.97;;;4.60;99.90;;;;;;5049334;28;20046;-74
2022/12/30 07:58:39;;;;;;;14.50;4.25;;;4.60;99.90;;;;;;5063049;28;20047;-74
2022/12/30 08:01:12;;;;;;;15.57;4.43;;;4.60;99.90;;;;;;5045725;28;20457;-75
2022/12/30 08:03:40;;;;;;;12.35;4.05;;;4.60;99.90;;;;;;5044783;28;20043;-74
2022/12/30 08:06:09;;;;;;;17.27;4.43;;;4.60;99.90;;;;;;5063149;28;20404;-75
2022/12/30 08:08:35;;;;;;;15.65;4.28;;;4.70;99.90;;;;;;5074028;28;20040;-75
2022/12/30 08:11:02;;;;;;;14.98;3.53;;;4.70;99.90;;;;;;5067177;28;20068;-74
2022/12/30 08:13:31;;;;;;;15.77;4.40;;;4.70;99.90;;;;;;5045032;28;20036;-74
2022/12/30 08:15:56;;;;;;;14.95;4.28;;;4.70;99.90;;;;;;5063669;28;20044;-74
2022/12/30 08:18:22;;;;;;;14.55;4.63;;;4.70;99.90;;;;;;5064499;28;20102;-74
2022/12/30 08:20:47;;;;;;;16.90;4.82;;;4.70;99.90;;;;;;5049009;28;20037;-74
2022/12/30 08:23:13;;;;;;;18.75;4.65;;;4.70;99.90;;;;;;5044969;28;20040;-75
2022/12/30 08:25:39;;;;;;;14.65;5.10;;;4.70;99.90;;;;;;5060916;28;20048;-75
2022/12/30 08:28:05;;;;;;;18.23;4.32;;;4.70;99.90;;;;;;5059579;28;20036;-74
2022/12/30 08:30:31;;;;;;;14.10;3.67;;;4.80;99.90;;;;;;5062723;28;20036;-74
2022/12/30 08:32:56;;;;;;;20.52;4.95;;;4.80;99.90;;;;;;5045680;28;20032;-75
2022/12/30 08:35:22;;;;;;;17.52;4.55;;;4.80;99.90;;;;;;5047021;28;20045;-75
2022/12/30 08:37:47;;;;;;;12.23;3.97;;;4.80;99.90;;;;;;5043989;28;20568;-74
2022/12/30 08:40:13;;;;;;;18.05;4.40;;;4.80;99.90;;;;;;5062727;28;20145;-74
2022/12/30 08:42:38;;;;;;;14.65;4.50;;;4.80;99.90;;;;;;5047114;28;20508;-75
2022/12/30 08:45:06;;;;;;;12.82;4.90;;;4.80;99.90;;;;;;5063671;28;20063;-74
2022/12/30 08:47:33;;;;;;;15.65;4.25;;;4.90;99.90;;;;;;5064333;28;20580;-75
2022/12/30 08:49:59;;;;;;;13.45;4.22;;;4.90;99.90;;;;;;5066778;28;20044;-74
2022/12/30 08:52:24;;;;;;;15.93;4.90;;;5.00;99.90;;;;;;5065743;28;20037;-74
2022/12/30 08:54:50;;;;;;;11.65;4.32;;;5.00;99.90;;;;;;5082009;28;20036;-75
2022/12/30 08:57:16;;;;;;;15.23;4.68;;;5.00;99.90;;;;;;5064009;28;20028;-75
2022/12/30 08:59:41;;;;;;;17.15;4.55;;;5.10;99.90;;;;;;5051399;28;20044;-74
2022/12/30 09:02:12;;;;;;;19.15;4.72;;;5.10;99.90;;;;;;5067276;28;20120;-74
2022/12/30 09:04:37;;;;;;;15.48;5.15;;;5.10;99.90;;;;;;5067871;28;20404;-74
2022/12/30 09:07:03;;;;;;;13.68;4.50;;;5.10;99.90;;;;;;5050430;28;20039;-74
2022/12/30 09:09:29;;;;;;;21.40;4.47;;;5.20;99.90;;;;;;5052026;28;20044;-74
2022/12/30 09:11:55;;;;;;;17.30;4.35;;;5.20;99.90;;;;;;5063777;28;20131;-74
2022/12/30 09:14:22;;;;;;;16.48;4.35;;;5.30;99.90;;;;;;5064003;28;20101;-74
2022/12/30 09:16:48;;;;;;;12.90;3.97;;;5.30;99.90;;;;;;5050555;28;20043;-74
2022/12/30 09:19:14;;;;;;;17.95;4.35;;;5.30;99.90;;;;;;5066340;28;20040;-74
2022/12/30 09:21:40;;;;;;;12.25;3.97;;;5.40;99.90;;;;;;5065887;28;20123;-74
2022/12/30 09:24:06;;;;;;;10.75;4.00;;;5.40;99.90;;;;;;5066447;28;20618;-74
2022/12/30 09:26:31;;;;;;;14.80;3.95;;;5.40;99.90;;;;;;5067525;28;20075;-75
2022/12/30 09:28:58;;;;;;;18.90;4.65;;;5.50;99.90;;;;;;5051301;28;20043;-75
2022/12/30 09:31:24;;;;;;;13.43;3.35;;;5.50;99.90;;;;;;5050435;28;20040;-74
2022/12/30 09:33:50;;;;;;;13.40;3.72;;;5.50;99.90;;;;;;5047447;28;20036;-74
2022/12/30 09:36:17;;;;;;;12.95;3.97;;;5.60;99.90;;;;;;5048545;28;20040;-74
2022/12/30 09:38:43;;;;;;;17.27;3.95;;;5.60;99.90;;;;;;5050861;28;20051;-74
2022/12/30 09:41:15;;;;;;;12.23;3.65;;;5.60;99.90;;;;;;5063224;28;20076;-74
2022/12/30 09:44:16;;;;;;;11.27;3.63;;;5.70;99.90;;;;;;5049722;28;20057;-74
2022/12/30 09:46:47;;;;;;;12.23;4.20;;;5.70;99.90;;;;;;4973326;28;20096;-74
2022/12/30 09:49:31;;;;;;;15.45;4.30;;;5.70;99.90;;;;;;5050049;28;20060;-74
2022/12/30 09:52:13;;;;;;;10.93;3.50;;;5.70;99.90;;;;;;5065024;28;20059;-74
2022/12/30 09:54:49;;;;;;;12.20;4.10;;;5.80;99.90;;;;;;5049241;28;20040;-74
2022/12/30 09:57:31;;;;;;;13.65;3.88;;;5.80;99.90;;;;;;5049229;28;20047;-74
2022/12/30 10:00:04;;;;;;;15.13;4.05;;;5.90;99.90;;;;;;5062002;28;20041;-74
2022/12/30 10:03:05;;;;;;;12.02;3.75;;;6.00;99.90;;;;;;5079021;28;20378;-75
2022/12/30 10:05:49;;;;;;;12.75;4.38;;;6.00;99.90;;;;;;5063518;28;20033;-74
2022/12/30 10:08:42;;;;;;;12.57;4.47;;;6.00;99.90;;;;;;5037619;28;20036;-75
2022/12/30 10:11:38;;;;;;;17.92;3.80;;;6.10;99.90;;;;;;5058645;28;20132;-76
2022/12/30 10:14:24;;;;;;;13.68;4.70;;;6.10;99.90;;;;;;5060503;28;20474;-75
2022/12/30 10:17:16;;;;;;;12.75;4.07;;;6.20;99.90;;;;;;5062460;28;20048;-75
2022/12/30 10:20:17;;;;;;;13.25;4.78;;;6.20;99.90;;;;;;5046266;28;20512;-74
2022/12/30 10:22:58;;;;;;;12.52;4.07;;;6.30;99.90;;;;;;5064196;28;20083;-75
2022/12/30 10:25:59;;;;;;;13.65;4.93;;;6.30;99.90;;;;;;5040324;28;20040;-75
2022/12/30 10:28:40;;;;;;;12.98;3.67;;;6.40;99.90;;;;;;5036642;28;20630;-75
2022/12/30 10:31:12;;;;;;;10.82;4.03;;;6.40;99.90;;;;;;5059655;28;20047;-75
2022/12/30 10:33:37;;;;;;;16.42;4.10;;;6.50;99.90;;;;;;5045412;28;20044;-74
2022/12/30 10:36:09;;;;;;;12.80;3.67;;;6.50;99.90;;;;;;5045955;28;20032;-74
2022/12/30 10:38:36;;;;;;;11.02;3.60;;;6.60;99.90;;;;;;5047522;28;20032;-74
2022/12/30 10:41:40;;;;;;;11.25;3.60;;;6.60;99.90;;;;;;5009662;28;1070057;-74
2022/12/30 10:44:29;;;;;;;11.38;3.63;;;6.70;99.90;;;;;;5063973;28;20499;-74
2022/12/30 10:47:18;;;;;;;10.88;3.75;;;6.80;99.90;;;;;;5047503;28;20090;-75
2022/12/30 10:50:09;;;;;;;12.70;3.30;;;6.80;99.90;;;;;;5080115;28;20045;-74
2022/12/30 10:52:34;;;;;;;8.30;3.30;;;6.90;99.90;;;;;;5065145;28;20381;-74
2022/12/30 10:55:12;;;;;;;13.18;3.83;;;6.90;99.90;;;;;;5048250;28;20037;-74
2022/12/30 10:57:37;;;;;;;11.40;4.28;;;6.90;99.90;;;;;;5061974;28;20110;-75
2022/12/30 11:00:05;;;;;;;9.20;3.40;;;6.90;99.90;;;;;;5048595;28;20629;-74
2022/12/30 11:02:36;;;;;;;9.48;3.17;;;6.90;99.90;;;;;;5064451;28;20090;-74
2022/12/30 11:05:02;;;;;;;11.18;3.67;;;6.90;99.90;;;;;;5063421;28;20079;-74
2022/12/30 11:07:28;;;;;;;8.10;3.20;;;7.00;99.90;;;;;;5050484;28;20063;-74
2022/12/30 11:09:53;;;;;;;9.45;2.92;;;7.00;99.90;;;;;;5045626;28;20088;-74
2022/12/30 11:15:21;;;;;;;9.48;3.15;;;7.00;99.90;;;;;;5058892;28;20045;-74
2022/12/30 11:17:53;;;;;;;10.80;3.30;;;7.00;99.90;;;;;;5048055;28;20503;-74
2022/12/30 11:20:18;;;;;;;8.75;3.08;;;6.90;99.90;;;;;;5063843;28;20051;-74
2022/12/30 11:22:48;;;;;;;7.68;2.97;;;7.00;99.90;;;;;;5047878;28;20412;-74
2022/12/30 11:25:42;;;;;;;6.32;2.90;;;7.00;99.90;;;;;;5046209;28;20044;-74
2022/12/30 11:28:17;;;;;;;12.23;3.00;;;7.00;99.90;;;;;;5059467;28;20086;-74
2022/12/30 11:30:57;;;;;;;8.25;3.45;;;7.10;99.90;;;;;;5046344;28;20439;-74
2022/12/30 11:33:35;;;;;;;9.80;2.78;;;7.10;99.90;;;;;;5046086;28;20044;-74
2022/12/30 11:36:11;;;;;;;12.40;3.38;;;7.20;99.90;;;;;;5060897;28;20396;-74
2022/12/30 11:38:39;;;;;;;9.80;2.83;;;7.20;99.90;;;;;;5048566;28;20076;-74
2022/12/30 11:41:19;;;;;;;9.52;2.90;;;7.30;99.90;;;;;;5060998;28;20059;-74
2022/12/30 11:43:49;;;;;;;13.20;3.17;;;7.30;99.90;;;;;;5056160;28;20048;-74
2022/12/30 11:46:18;;;;;;;8.77;2.53;;;7.30;99.90;;;;;;5042969;28;20511;-74
2022/12/30 11:48:55;;;;;;;7.75;2.88;;;7.30;99.90;;;;;;5062731;28;20040;-74
2022/12/30 11:51:51;;;;;;;7.68;2.55;;;7.40;99.90;;;;;;5040623;28;20424;-74
2022/12/30 11:54:19;;;;;;;8.60;2.70;;;7.40;99.90;;;;;;5044027;28;20044;-74
2022/12/30 11:57:03;;;;;;;7.35;2.90;;;7.50;99.90;;;;;;5043771;28;20456;-74
2022/12/30 11:59:53;;;;;;;8.00;2.65;;;7.50;99.90;;;;;;5059081;28;20079;-74
2022/12/30 12:02:25;;;;;;;7.65;2.78;;;7.50;99.90;;;;;;5043291;28;20050;-74
2022/12/30 12:04:51;;;;;;;6.72;2.88;;;7.60;99.90;;;;;;5063357;28;20456;-74
2022/12/30 12:07:16;;;;;;;8.38;2.67;;;7.60;99.90;;;;;;5047858;28;20143;-74
2022/12/30 12:09:44;;;;;;;6.20;2.58;;;7.60;99.90;;;;;;5045587;28;20509;-75
2022/12/30 12:12:17;;;;;;;8.85;2.67;;;7.70;99.90;;;;;;5046754;28;20088;-74
2022/12/30 12:14:45;;;;;;;10.20;2.90;;;7.70;99.90;;;;;;5045046;28;20117;-74
2022/12/30 12:17:19;;;;;;;8.73;2.90;;;7.70;99.90;;;;;;5041592;28;20043;-74
2022/12/30 12:19:45;;;;;;;7.78;2.47;;;7.70;99.90;;;;;;5065055;28;20079;-74
2022/12/30 12:22:21;;;;;;;9.07;2.47;;;7.80;99.90;;;;;;5064965;28;20040;-74
2022/12/30 12:24:52;;;;;;;5.80;2.28;;;7.80;99.90;;;;;;5047231;28;20037;-75
2022/12/30 12:27:19;;;;;;;8.85;2.75;;;7.80;99.90;;;;;;5064222;28;20039;-74
2022/12/30 12:29:45;;;;;;;8.20;2.97;;;7.80;99.90;;;;;;5056081;28;20040;-74
2022/12/30 12:32:38;;;;;;;5.43;2.30;;;7.90;99.90;;;;;;5060027;28;20040;-74
2022/12/30 12:35:10;;;;;;;8.32;2.10;;;7.90;99.90;;;;;;5059825;28;20120;-75
2022/12/30 12:37:54;;;;;;;11.88;2.33;;;8.00;99.90;;;;;;5046506;28;20408;-75
2022/12/30 12:40:50;;;;;;;8.32;2.70;;;8.00;99.90;;;;;;5046660;28;20056;-75
2022/12/30 12:43:47;;;;;;;8.35;2.60;;;8.10;99.90;;;;;;5061540;28;20411;-76
2022/12/30 12:46:32;;;;;;;5.68;2.20;;;8.10;99.90;;;;;;5045349;28;20054;-76
2022/12/30 12:49:09;;;;;;;5.30;2.28;;;8.20;99.90;;;;;;5062002;28;20102;-75
2022/12/30 12:51:49;;;;;;;7.05;2.50;;;8.20;99.90;;;;;;5044649;28;20523;-75
2022/12/30 12:54:48;;;;;;;11.18;2.20;;;8.20;99.90;;;;;;5064299;28;20082;-75
2022/12/30 12:57:16;;;;;;;6.28;2.30;;;8.30;99.90;;;;;;5044281;28;20433;-75
2022/12/30 13:00:00;;;;;;;6.20;2.38;;;8.30;99.90;;;;;;5045528;28;20075;-75
2022/12/30 13:02:52;;;;;;;6.33;2.33;;;8.30;99.90;;;;;;5078422;28;20085;-76
2022/12/30 13:05:33;;;;;;;7.13;2.70;;;8.40;99.90;;;;;;5062787;28;20037;-76
2022/12/30 13:08:20;;;;;;;5.65;2.33;;;8.30;99.90;;;;;;5047751;28;20090;-75
2022/12/30 13:11:17;;;;;;;10.02;2.63;;;8.30;99.90;;;;;;5062608;28;20048;-76
2022/12/30 13:14:00;;;;;;;7.47;2.78;;;8.30;99.90;;;;;;5041689;28;20051;-75
2022/12/30 13:16:51;;;;;;;3.83;2.20;;;8.40;99.90;;;;;;5059567;28;20036;-75
2022/12/30 13:19:22;;;;;;;7.75;2.53;;;8.40;99.90;;;;;;5033200;28;20053;-75
2022/12/30 13:21:52;;;;;;;4.95;2.50;;;8.40;99.90;;;;;;5060339;28;20536;-75
2022/12/30 13:24:39;;;;;;;7.75;2.90;;;8.40;99.90;;;;;;5041828;28;20044;-75
2022/12/30 13:27:11;;;;;;;7.82;2.95;;;8.50;99.90;;;;;;5044623;28;20090;-75
2022/12/30 13:29:38;;;;;;;5.13;2.47;;;8.50;99.90;;;;;;5061287;28;20369;-75
2022/12/30 13:32:41;;;;;;;4.72;2.20;;;8.50;99.90;;;;;;5044987;28;20048;-75
2022/12/30 13:35:26;;;;;;;6.05;2.40;;;8.60;99.90;;;;;;5034980;28;20527;-75
2022/12/30 13:38:04;;;;;;;9.43;2.30;;;8.60;99.90;;;;;;5049157;28;20040;-75
2022/12/30 13:40:43;;;;;;;6.43;2.58;;;8.70;99.90;;;;;;5048364;28;20096;-76
2022/12/30 13:43:33;;;;;;;9.40;2.67;;;8.70;99.90;;;;;;5050121;28;20059;-75
2022/12/30 13:45:59;;;;;;;7.53;2.55;;;8.70;99.90;;;;;;5066666;28;20101;-76
2022/12/30 13:48:25;;;;;;;6.05;2.20;;;8.80;99.90;;;;;;5062292;28;20077;-75
2022/12/30 13:51:05;;;;;;;6.90;2.55;;;8.80;99.90;;;;;;5046493;28;20515;-76
2022/12/30 13:53:36;;;;;;;6.60;2.67;;;8.80;99.90;;;;;;5082487;28;20040;-75
2022/12/30 13:56:03;;;;;;;5.05;2.42;;;8.80;99.90;;;;;;5066303;28;20045;-76
2022/12/30 13:58:57;;;;;;;9.02;2.72;;;8.80;99.90;;;;;;5064381;28;20047;-75
2022/12/30 14:01:27;;;;;;;8.57;2.53;;;8.90;99.90;;;;;;5078450;28;20064;-76
2022/12/30 14:04:15;;;;;;;7.57;2.40;;;8.90;99.90;;;;;;5048912;28;21358;-75